createdAt,value
2018-01-12T00:00:04.901Z,32.92
2018-01-12T00:02:32.471Z,33.38
2018-01-12T00:04:59.960Z,34.53
2018-01-12T00:07:27.581Z,35.42
2018-01-12T00:09:55.741Z,34.83
2018-01-12T00:12:26.958Z,36.13
2018-01-12T00:14:56.962Z,32.17
2018-01-12T00:17:24.819Z,34.17
2018-01-12T00:19:52.639Z,34.38
2018-01-12T00:22:20.539Z,31.70
2018-01-12T00:24:51.004Z,33.40
2018-01-12T00:27:20.047Z,31.52
2018-01-12T00:29:47.770Z,31.08
2018-01-12T00:32:15.737Z,33.43
2018-01-12T00:34:43.368Z,30.20
2018-01-12T00:37:11.781Z,32.42
2018-01-12T00:39:39.537Z,29.92
2018-01-12T00:42:07.041Z,33.05
2018-01-12T00:44:34.543Z,31.70
2018-01-12T00:47:04.028Z,31.75
2018-01-12T00:49:31.743Z,31.92
2018-01-12T00:52:00.130Z,32.85
2018-01-12T00:54:27.766Z,31.35
2018-01-12T00:56:56.057Z,31.90
2018-01-12T00:59:24.872Z,31.73
2018-01-12T01:01:52.451Z,31.37
2018-01-12T01:04:19.996Z,30.60
2018-01-12T01:06:47.675Z,32.58
2018-01-12T01:09:15.510Z,32.95
2018-01-12T01:11:43.798Z,32.40
2018-01-12T01:14:12.181Z,31.67
2018-01-12T01:16:40.340Z,31.48
2018-01-12T01:19:08.056Z,33.25
2018-01-12T01:21:35.571Z,31.33
2018-01-12T01:24:03.105Z,32.78
2018-01-12T01:26:30.915Z,31.45
2018-01-12T01:28:59.247Z,32.60
2018-01-12T01:31:26.743Z,34.70
2018-01-12T01:33:54.672Z,33.50
2018-01-12T01:36:22.277Z,30.77
2018-01-12T01:38:49.967Z,33.92
2018-01-12T01:41:18.241Z,30.88
2018-01-12T01:43:46.530Z,32.60
2018-01-12T01:46:14.809Z,30.35
2018-01-12T01:48:43.096Z,31.25
2018-01-12T01:51:11.387Z,31.55
2018-01-12T01:53:40.681Z,32.97
2018-01-12T01:56:08.964Z,33.63
2018-01-12T01:58:37.399Z,34.30
2018-01-12T02:01:07.704Z,33.40
2018-01-12T02:03:35.263Z,31.23
2018-01-12T02:06:03.158Z,31.02
2018-01-12T02:08:31.637Z,31.58
2018-01-12T02:10:59.156Z,33.03
2018-01-12T02:13:26.705Z,32.42
2018-01-12T02:15:55.039Z,32.75
2018-01-12T02:18:23.525Z,33.30
2018-01-12T02:20:51.070Z,30.85
2018-01-12T02:23:18.643Z,32.05
2018-01-12T02:25:46.164Z,34.53
2018-01-12T02:28:14.920Z,31.75
2018-01-12T02:30:42.541Z,31.75
2018-01-12T02:33:10.869Z,33.05
2018-01-12T02:35:38.637Z,34.42
2018-01-12T02:38:07.302Z,33.95
2018-01-12T02:40:34.853Z,31.50
2018-01-12T02:43:02.362Z,32.50
2018-01-12T02:45:29.876Z,29.85
2018-01-12T02:47:57.454Z,31.62
2018-01-12T02:50:25.030Z,34.15
2018-01-12T02:52:52.842Z,33.33
2018-01-12T02:55:20.969Z,35.22
2018-01-12T02:57:48.552Z,31.08
2018-01-12T03:00:16.121Z,33.17
2018-01-12T03:02:48.642Z,29.92
2018-01-12T03:05:17.183Z,30.95
2018-01-12T03:07:44.703Z,31.67
2018-01-12T03:10:13.707Z,29.98
2018-01-12T03:12:41.250Z,33.53
2018-01-12T03:15:09.528Z,30.65
2018-01-12T03:17:37.034Z,31.65
2018-01-12T03:20:04.745Z,34.03
2018-01-12T03:22:32.254Z,32.75
2018-01-12T03:25:00.510Z,31.60
2018-01-12T03:27:28.802Z,30.80
2018-01-12T03:29:56.320Z,32.15
2018-01-12T03:32:23.854Z,30.90
2018-01-12T03:34:51.591Z,30.30
2018-01-12T03:37:19.864Z,33.85
2018-01-12T03:39:50.134Z,30.00
2018-01-12T03:42:17.693Z,30.67
2018-01-12T03:44:46.072Z,32.42
2018-01-12T03:47:13.571Z,34.40
2018-01-12T03:49:41.104Z,34.30
2018-01-12T03:52:08.628Z,29.87
2018-01-12T03:54:36.217Z,33.72
2018-01-12T03:57:04.704Z,33.90
2018-01-12T03:59:32.265Z,34.97
2018-01-12T04:01:59.866Z,34.38
2018-01-12T04:04:27.536Z,31.42
2018-01-12T04:06:56.055Z,31.90
2018-01-12T04:09:23.781Z,33.38
2018-01-12T04:11:51.303Z,32.42
2018-01-12T04:14:19.589Z,35.95
2018-01-12T04:16:47.886Z,31.37
2018-01-12T04:19:16.626Z,30.52
2018-01-12T04:21:45.513Z,34.10
2018-01-12T04:24:13.098Z,30.52
2018-01-12T04:26:40.686Z,31.12
2018-01-12T04:29:08.965Z,29.48
2018-01-12T04:31:37.237Z,32.10
2018-01-12T04:34:05.511Z,31.17
2018-01-12T04:36:33.008Z,30.08
2018-01-12T04:39:00.540Z,28.08
2018-01-12T04:41:28.094Z,31.08
2018-01-12T04:43:55.628Z,30.02
2018-01-12T04:46:23.938Z,27.33
2018-01-12T04:48:51.801Z,29.17
2018-01-12T04:51:19.331Z,29.40
2018-01-12T04:53:46.975Z,27.27
2018-01-12T04:56:15.211Z,28.50
2018-01-12T04:58:43.139Z,26.27
2018-01-12T05:01:12.058Z,26.40
2018-01-12T05:03:39.640Z,24.92
2018-01-12T05:06:07.170Z,28.35
2018-01-12T05:08:35.511Z,25.15
2018-01-12T05:11:03.797Z,25.30
2018-01-12T05:13:32.312Z,26.20
2018-01-12T05:15:59.867Z,25.65
2018-01-12T05:18:28.170Z,26.33
2018-01-12T05:20:56.073Z,26.60
2018-01-12T05:23:23.636Z,26.77
2018-01-12T05:25:51.398Z,25.20
2018-01-12T05:28:19.736Z,26.00
2018-01-12T05:30:47.765Z,23.10
2018-01-12T05:33:16.760Z,24.02
2018-01-12T05:35:44.584Z,22.23
2018-01-12T05:38:12.629Z,26.45
2018-01-12T05:40:42.536Z,22.85
2018-01-12T05:43:10.906Z,22.75
2018-01-12T05:45:38.444Z,23.58
2018-01-12T05:48:06.194Z,25.85
2018-01-12T05:50:33.817Z,23.35
2018-01-12T05:53:01.318Z,24.75
2018-01-12T05:55:28.883Z,24.05
2018-01-12T05:57:56.453Z,23.40
2018-01-12T06:00:24.832Z,24.10
2018-01-12T06:03:04.173Z,23.35
2018-01-12T06:05:43.662Z,23.48
2018-01-12T06:08:11.209Z,22.10
2018-01-12T06:10:39.045Z,23.87
2018-01-12T06:13:07.610Z,21.45
2018-01-12T06:15:35.169Z,23.55
2018-01-12T06:18:03.462Z,23.77
2018-01-12T06:20:30.994Z,21.52
2018-01-12T06:22:59.196Z,21.08
2018-01-12T06:25:27.510Z,21.05
2018-01-12T06:27:55.165Z,21.33
2018-01-12T06:30:22.675Z,20.73
2018-01-12T06:32:50.190Z,20.40
2018-01-12T06:35:17.688Z,21.08
2018-01-12T06:37:45.248Z,20.98
2018-01-12T06:40:12.887Z,21.10
2018-01-12T06:42:40.381Z,20.10
2018-01-12T06:45:09.132Z,19.90
2018-01-12T06:47:36.825Z,18.95
2018-01-12T06:50:04.352Z,19.12
2018-01-12T06:52:31.874Z,17.52
2018-01-12T06:54:59.881Z,19.08
2018-01-12T06:57:28.157Z,18.62
2018-01-12T06:59:56.560Z,18.50
2018-01-12T07:02:24.093Z,20.40
2018-01-12T07:04:51.656Z,17.87
2018-01-12T07:07:19.180Z,17.05
2018-01-12T07:09:46.736Z,18.00
2018-01-12T07:12:14.273Z,17.87
2018-01-12T07:14:42.848Z,17.45
2018-01-12T07:17:10.372Z,19.10
2018-01-12T07:19:37.880Z,18.23
2018-01-12T07:22:18.162Z,16.95
2018-01-12T07:24:46.427Z,15.50
2018-01-12T07:27:13.962Z,16.40
2018-01-12T07:29:41.828Z,18.55
2018-01-12T07:32:09.366Z,18.10
2018-01-12T07:34:36.927Z,19.35
2018-01-12T07:37:05.913Z,17.85
2018-01-12T07:39:33.432Z,17.80
2018-01-12T07:42:01.734Z,17.42
2018-01-12T07:44:29.381Z,17.33
2018-01-12T07:46:56.995Z,19.10
2018-01-12T07:49:24.561Z,18.02
2018-01-12T07:51:52.853Z,17.65
2018-01-12T07:54:20.806Z,17.23
2018-01-12T07:56:48.653Z,17.90
2018-01-12T07:59:16.986Z,17.15
2018-01-12T08:01:52.780Z,18.58
2018-01-12T08:04:21.096Z,18.40
2018-01-12T08:06:49.032Z,18.23
2018-01-12T08:09:17.360Z,19.62
2018-01-12T08:11:46.263Z,18.17
2018-01-12T08:14:14.064Z,17.77
2018-01-12T08:16:44.116Z,18.30
2018-01-12T08:19:12.246Z,17.35
2018-01-12T08:21:39.725Z,21.10
2018-01-12T08:24:08.065Z,18.33
2018-01-12T08:26:35.721Z,18.52
2018-01-12T08:29:06.726Z,18.15
2018-01-12T08:31:35.142Z,19.30
2018-01-12T08:34:03.556Z,17.08
2018-01-12T08:36:31.079Z,18.10
2018-01-12T08:38:59.132Z,17.52
2018-01-12T08:41:26.735Z,19.12
2018-01-12T08:43:54.544Z,18.77
2018-01-12T08:46:22.485Z,17.62
2018-01-12T08:48:50.151Z,17.60
2018-01-12T08:51:17.704Z,16.58
2018-01-12T08:53:46.214Z,19.02
2018-01-12T08:56:13.803Z,18.25
2018-01-12T08:58:41.328Z,17.85
2018-01-12T09:01:09.350Z,17.65
2018-01-12T09:03:37.426Z,18.37
2018-01-12T09:06:06.009Z,17.58
2018-01-12T09:08:33.841Z,17.87
2018-01-12T09:11:02.461Z,18.67
2018-01-12T09:13:42.844Z,17.60
2018-01-12T09:16:11.517Z,19.27
2018-01-12T09:18:50.893Z,18.30
2018-01-12T09:21:26.469Z,17.00
2018-01-12T09:23:55.536Z,19.08
2018-01-12T09:26:23.199Z,19.52
2018-01-12T09:28:51.081Z,16.95
2018-01-12T09:31:18.620Z,17.80
2018-01-12T09:33:47.790Z,20.70
2018-01-12T09:36:15.384Z,18.52
2018-01-12T09:38:53.590Z,18.87
2018-01-12T09:41:22.892Z,19.30
2018-01-12T09:43:51.152Z,18.83
2018-01-12T09:46:18.736Z,19.17
2018-01-12T09:48:51.705Z,22.40
2018-01-12T09:51:20.010Z,19.50
2018-01-12T09:53:49.076Z,19.65
2018-01-12T09:56:16.601Z,19.52
2018-01-12T09:58:45.893Z,18.30
2018-01-12T10:04:23.991Z,18.23
2018-01-12T10:06:51.522Z,19.75
2018-01-12T10:09:33.923Z,17.50
2018-01-12T10:12:02.254Z,18.92
2018-01-12T10:14:29.775Z,18.85
2018-01-12T10:16:57.316Z,17.70
2018-01-12T10:19:25.134Z,19.73
2018-01-12T10:21:53.341Z,17.37
2018-01-12T10:24:20.874Z,18.70
2018-01-12T10:26:50.216Z,18.42
2018-01-12T10:29:39.925Z,18.52
2018-01-12T10:32:08.292Z,17.67
2018-01-12T10:34:44.692Z,18.40
2018-01-12T10:37:13.626Z,17.15
2018-01-12T10:39:54.533Z,18.15
2018-01-12T10:42:22.056Z,20.02
2018-01-12T10:44:50.692Z,18.50
2018-01-12T10:47:26.049Z,17.17
2018-01-12T10:49:57.277Z,17.75
2018-01-12T10:52:38.523Z,20.77
2018-01-12T10:55:06.008Z,20.12
2018-01-12T10:57:33.505Z,19.52
2018-01-12T11:00:01.802Z,14.32
2018-01-12T11:02:29.695Z,17.48
2018-01-12T11:04:57.204Z,18.12
2018-01-12T11:07:25.464Z,17.98
2018-01-12T11:09:53.001Z,17.83
2018-01-12T11:12:20.547Z,18.33
2018-01-12T11:14:48.077Z,18.42
2018-01-12T11:17:16.399Z,19.37
2018-01-12T11:19:44.232Z,17.80
2018-01-12T11:22:12.571Z,17.23
2018-01-12T11:24:40.106Z,17.60
2018-01-12T11:27:07.617Z,18.23
2018-01-12T11:29:36.649Z,18.25
2018-01-12T11:32:05.253Z,17.05
2018-01-12T11:34:33.538Z,17.08
2018-01-12T11:37:01.074Z,19.30
2018-01-12T11:39:29.361Z,19.27
2018-01-12T11:41:57.474Z,17.92
2018-01-12T11:44:24.996Z,19.17
2018-01-12T11:46:52.517Z,18.25
2018-01-12T11:49:20.037Z,19.62
2018-01-12T11:51:47.572Z,17.85
2018-01-12T11:54:15.891Z,19.65
2018-01-12T11:56:43.420Z,20.08
2018-01-12T11:59:11.827Z,28.15
2018-01-12T12:01:40.107Z,20.10
2018-01-12T12:04:08.686Z,23.02
2018-01-12T12:06:37.014Z,23.20
2018-01-12T12:09:04.522Z,19.40
2018-01-12T12:11:32.841Z,17.87
2018-01-12T12:14:00.356Z,16.87
2018-01-12T12:16:28.735Z,17.85
2018-01-12T12:18:56.230Z,19.83
2018-01-12T12:21:24.518Z,17.80
2018-01-12T12:23:52.781Z,18.05
2018-01-12T12:26:21.041Z,19.20
2018-01-12T12:28:48.615Z,19.87
2018-01-12T12:31:16.215Z,18.58
2018-01-12T12:33:44.290Z,17.77
2018-01-12T12:36:12.525Z,16.67
2018-01-12T12:38:40.838Z,19.85
2018-01-12T12:41:09.161Z,19.33
2018-01-12T12:43:36.739Z,18.17
2018-01-12T12:46:05.850Z,20.00
2018-01-12T12:48:33.360Z,21.70
2018-01-12T12:51:00.929Z,19.73
2018-01-12T12:53:28.484Z,18.87
2018-01-12T12:55:56.088Z,19.95
2018-01-12T12:58:23.837Z,20.62
2018-01-12T13:00:52.214Z,20.30
2018-01-12T13:03:19.881Z,20.37
2018-01-12T13:05:47.398Z,18.75
2018-01-12T13:08:14.938Z,19.90
2018-01-12T13:10:43.320Z,19.95
2018-01-12T13:13:10.857Z,19.73
2018-01-12T13:15:41.057Z,20.62
2018-01-12T13:18:10.424Z,18.55
2018-01-12T13:20:37.936Z,21.05
2018-01-12T13:23:06.168Z,20.65
2018-01-12T13:25:33.708Z,20.50
2018-01-12T13:28:01.233Z,18.37
2018-01-12T13:30:28.956Z,19.87
2018-01-12T13:32:56.773Z,21.92
2018-01-12T13:35:24.518Z,20.17
2018-01-12T13:37:52.052Z,19.60
2018-01-12T13:40:19.545Z,19.33
2018-01-12T13:42:48.060Z,22.95
2018-01-12T13:45:15.609Z,19.40
2018-01-12T13:47:43.925Z,20.05
2018-01-12T13:50:12.310Z,16.92
2018-01-12T13:52:39.854Z,18.92
2018-01-12T13:55:07.759Z,20.42
2018-01-12T13:57:36.037Z,19.17
2018-01-12T14:00:03.565Z,21.83
2018-01-12T14:02:31.829Z,21.45
2018-01-12T14:05:01.108Z,20.27
2018-01-12T14:07:28.973Z,20.23
2018-01-12T14:09:56.464Z,20.62
2018-01-12T14:12:23.991Z,20.30
2018-01-12T14:14:51.552Z,21.67
2018-01-12T14:17:19.107Z,23.50
2018-01-12T14:19:46.773Z,22.58
2018-01-12T14:22:14.294Z,20.77
2018-01-12T14:24:42.585Z,21.02
2018-01-12T14:27:10.985Z,22.33
2018-01-12T14:29:38.644Z,21.33
2018-01-12T14:32:06.651Z,22.77
2018-01-12T14:34:34.170Z,22.75
2018-01-12T14:37:02.459Z,22.13
2018-01-12T14:39:29.964Z,21.40
2018-01-12T14:41:57.468Z,22.67
2018-01-12T14:44:25.745Z,21.95
2018-01-12T14:46:54.018Z,22.35
2018-01-12T14:49:22.956Z,21.33
2018-01-12T14:51:51.394Z,20.35
2018-01-12T14:54:18.992Z,22.15
2018-01-12T14:56:48.416Z,20.17
2018-01-12T14:59:15.954Z,21.45
2018-01-12T15:01:44.229Z,22.60
2018-01-12T15:04:12.764Z,21.27
2018-01-12T15:06:40.315Z,21.37
2018-01-12T15:09:07.957Z,20.33
2018-01-12T15:11:36.646Z,22.45
2018-01-12T15:14:04.955Z,20.00
2018-01-12T15:16:32.481Z,22.23
2018-01-12T15:19:01.178Z,20.30
2018-01-12T15:21:29.577Z,21.55
2018-01-12T15:23:57.088Z,19.67
2018-01-12T15:26:24.697Z,22.20
2018-01-12T15:28:52.291Z,23.70
2018-01-12T15:31:19.929Z,20.60
2018-01-12T15:33:47.741Z,22.15
2018-01-12T15:36:15.359Z,21.87
2018-01-12T15:38:43.635Z,23.02
2018-01-12T15:41:11.925Z,22.30
2018-01-12T15:43:40.314Z,22.55
2018-01-12T15:46:09.849Z,21.90
2018-01-12T15:48:38.059Z,22.00
2018-01-12T15:51:05.548Z,21.83
2018-01-12T15:53:33.845Z,22.95
2018-01-12T15:56:02.104Z,22.98
2018-01-12T15:58:30.440Z,27.90
2018-01-12T16:00:57.948Z,23.90
2018-01-12T16:03:26.389Z,26.98
2018-01-12T16:05:54.139Z,24.70
2018-01-12T16:08:21.666Z,24.80
2018-01-12T16:10:49.274Z,24.05
2018-01-12T16:13:16.818Z,24.40
2018-01-12T16:15:44.355Z,25.55
2018-01-12T16:18:12.635Z,25.17
2018-01-12T16:20:40.920Z,24.40
2018-01-12T16:23:09.769Z,24.70
2018-01-12T16:25:37.457Z,23.50
2018-01-12T16:28:04.996Z,23.92
2018-01-12T16:30:32.582Z,26.52
2018-01-12T16:33:00.080Z,27.67
2018-01-12T16:35:28.379Z,23.95
2018-01-12T16:37:55.933Z,24.08
2018-01-12T16:40:23.526Z,25.15
2018-01-12T16:42:52.809Z,28.08
2018-01-12T16:45:21.083Z,23.45
2018-01-12T16:47:50.235Z,22.48
2018-01-12T16:50:17.769Z,25.75
2018-01-12T16:52:45.277Z,25.02
2018-01-12T16:55:12.912Z,24.12
2018-01-12T16:57:40.502Z,28.25
2018-01-12T17:00:08.104Z,26.75
2018-01-12T17:02:37.536Z,25.12
2018-01-12T17:05:05.210Z,24.15
2018-01-12T17:07:32.702Z,23.52
2018-01-12T17:10:00.214Z,24.10
2018-01-12T17:12:27.779Z,22.83
2018-01-12T17:14:56.342Z,24.08
2018-01-12T17:17:24.628Z,23.95
2018-01-12T17:19:53.059Z,26.27
2018-01-12T17:22:20.589Z,23.67
2018-01-12T17:24:48.138Z,22.10
2018-01-12T17:27:16.505Z,23.08
2018-01-12T17:29:44.036Z,22.25
2018-01-12T17:32:12.166Z,23.05
2018-01-12T17:34:40.446Z,23.00
2018-01-12T17:37:08.717Z,22.40
2018-01-12T17:39:37.034Z,21.70
2018-01-12T17:42:04.528Z,21.30
2018-01-12T17:44:32.404Z,22.33
2018-01-12T17:47:00.101Z,22.87
2018-01-12T17:49:28.517Z,20.02
2018-01-12T17:51:56.541Z,23.25
2018-01-12T17:54:24.220Z,22.30
2018-01-12T17:56:51.764Z,20.98
2018-01-12T17:59:19.496Z,21.75
2018-01-12T18:01:47.253Z,23.75
2018-01-12T18:04:15.569Z,23.50
2018-01-12T18:06:44.166Z,21.92
2018-01-12T18:09:13.016Z,22.37
2018-01-12T18:11:41.850Z,22.80
2018-01-12T18:14:09.422Z,21.20
2018-01-12T18:16:37.463Z,26.15
2018-01-12T18:19:05.822Z,22.73
2018-01-12T18:21:33.696Z,24.08
2018-01-12T18:24:02.751Z,21.77
2018-01-12T18:26:31.449Z,21.52
2018-01-12T18:28:58.981Z,23.00
2018-01-12T18:31:26.506Z,24.17
2018-01-12T18:33:54.820Z,23.62
2018-01-12T18:36:22.460Z,23.40
2018-01-12T18:38:50.763Z,24.92
2018-01-12T18:41:18.269Z,22.42
2018-01-12T18:43:46.660Z,24.45
2018-01-12T18:46:14.154Z,23.35
2018-01-12T18:48:42.468Z,23.10
2018-01-12T18:51:10.389Z,23.77
2018-01-12T18:53:38.745Z,24.23
2018-01-12T18:56:06.389Z,23.23
2018-01-12T18:58:34.050Z,25.83
2018-01-12T19:01:01.581Z,23.87
2018-01-12T19:03:29.879Z,24.00
2018-01-12T19:05:58.423Z,23.60
2018-01-12T19:08:25.929Z,26.67
2018-01-12T19:10:53.506Z,24.30
2018-01-12T19:13:21.471Z,24.40
2018-01-12T19:15:49.173Z,24.48
2018-01-12T19:18:16.698Z,23.60
2018-01-12T19:20:44.291Z,24.95
2018-01-12T19:23:11.827Z,25.77
2018-01-12T19:25:39.368Z,26.73
2018-01-12T19:28:07.662Z,27.80
2018-01-12T19:30:35.367Z,24.85
2018-01-12T19:33:03.720Z,25.12
2018-01-12T19:35:31.284Z,25.80
2018-01-12T19:38:00.409Z,23.40
2018-01-12T19:40:27.937Z,24.83
2018-01-12T19:42:56.210Z,27.65
2018-01-12T19:45:27.036Z,26.48
2018-01-12T19:47:54.629Z,25.12
2018-01-12T19:50:22.928Z,25.02
2018-01-12T19:52:50.858Z,26.15
2018-01-12T19:55:18.379Z,24.17
2018-01-12T19:57:45.911Z,25.65
2018-01-12T20:00:13.431Z,24.25
2018-01-12T20:02:40.988Z,25.42
2018-01-12T20:05:08.497Z,25.30
2018-01-12T20:07:36.901Z,23.80
2018-01-12T20:10:04.487Z,23.80
2018-01-12T20:12:32.108Z,25.98
2018-01-12T20:14:59.670Z,26.30
2018-01-12T20:17:27.386Z,26.15
2018-01-12T20:19:55.003Z,28.45
2018-01-12T20:22:23.380Z,24.95
2018-01-12T20:24:51.759Z,26.80
2018-01-12T20:27:20.087Z,26.45
2018-01-12T20:29:47.728Z,25.15
2018-01-12T20:32:16.078Z,28.12
2018-01-12T20:34:44.672Z,25.05
2018-01-12T20:37:12.288Z,27.20
2018-01-12T20:39:39.816Z,25.95
2018-01-12T20:42:08.224Z,27.10
2018-01-12T20:44:35.729Z,27.13
2018-01-12T20:47:06.285Z,27.30
2018-01-12T20:49:33.815Z,25.52
2018-01-12T20:52:01.451Z,26.08
2018-01-12T20:54:29.015Z,27.52
2018-01-12T20:56:56.557Z,27.67
2018-01-12T20:59:24.127Z,27.00
2018-01-12T21:01:51.726Z,27.40
2018-01-12T21:04:20.805Z,26.77
2018-01-12T21:06:48.326Z,26.55
2018-01-12T21:09:17.242Z,28.05
2018-01-12T21:11:45.505Z,31.62
2018-01-12T21:14:13.052Z,29.17
2018-01-12T21:16:40.582Z,32.15
2018-01-12T21:19:08.131Z,27.65
2018-01-12T21:21:35.835Z,31.05
2018-01-12T21:24:04.210Z,26.65
2018-01-12T21:26:32.540Z,29.27
2018-01-12T21:29:02.076Z,27.65
2018-01-12T21:31:29.758Z,27.15
2018-01-12T21:33:57.539Z,25.25
2018-01-12T21:36:25.460Z,25.33
2018-01-12T21:38:53.770Z,26.40
2018-01-12T21:41:21.262Z,29.60
2018-01-12T21:43:48.790Z,48.87
2018-01-12T21:46:16.765Z,27.87
2018-01-12T21:48:45.231Z,30.67
2018-01-12T21:51:12.995Z,27.27
2018-01-12T21:53:40.679Z,25.88
2018-01-12T21:56:08.962Z,28.45
2018-01-12T21:58:36.501Z,26.12
2018-01-12T22:01:04.380Z,26.50
2018-01-12T22:03:32.670Z,27.77
2018-01-12T22:06:00.965Z,28.60
2018-01-12T22:08:28.568Z,28.98
2018-01-12T22:10:56.204Z,26.77
2018-01-12T22:13:24.056Z,27.08
2018-01-12T22:15:52.331Z,29.80
2018-01-12T22:18:22.189Z,26.58
2018-01-12T22:20:50.875Z,26.70
2018-01-12T22:23:18.375Z,26.77
2018-01-12T22:25:45.887Z,27.23
2018-01-12T22:28:14.208Z,27.10
2018-01-12T22:30:41.730Z,27.83
2018-01-12T22:33:09.271Z,26.33
2018-01-12T22:35:37.978Z,29.05
2018-01-12T22:38:05.492Z,28.98
2018-01-12T22:40:33.821Z,27.45
2018-01-12T22:43:01.370Z,28.90
2018-01-12T22:45:28.903Z,27.40
2018-01-12T22:47:56.403Z,28.92
2018-01-12T22:50:24.020Z,27.85
2018-01-12T22:52:52.121Z,28.52
2018-01-12T22:55:19.654Z,29.75
2018-01-12T22:57:47.147Z,27.02
2018-01-12T23:00:14.770Z,26.37
2018-01-12T23:02:42.324Z,27.40
2018-01-12T23:05:10.153Z,27.10
2018-01-12T23:07:39.023Z,30.12
2018-01-12T23:10:06.628Z,26.87
2018-01-12T23:12:34.929Z,24.92
2018-01-12T23:15:03.322Z,26.73
2018-01-12T23:17:30.882Z,26.37
2018-01-12T23:19:58.428Z,27.87
2018-01-12T23:22:26.828Z,27.17
2018-01-12T23:24:54.347Z,29.10
2018-01-12T23:27:22.509Z,26.65
2018-01-12T23:29:50.092Z,28.00
2018-01-12T23:32:18.461Z,27.67
2018-01-12T23:34:46.141Z,26.55
2018-01-12T23:37:14.388Z,27.77
2018-01-12T23:39:41.925Z,25.90
2018-01-12T23:42:10.629Z,27.98
2018-01-12T23:44:38.302Z,27.70
2018-01-12T23:47:06.188Z,31.00
2018-01-12T23:49:33.756Z,27.45
2018-01-12T23:52:01.657Z,27.00
2018-01-12T23:54:29.183Z,27.60
2018-01-12T23:56:57.233Z,27.70
2018-01-12T23:59:25.519Z,28.40
